createdAt,value
2017-12-08T00:01:35.490Z,6.99
2017-12-08T00:03:36.901Z,6.98
2017-12-08T00:05:38.391Z,7.01
2017-12-08T00:07:39.804Z,6.83
2017-12-08T00:09:41.225Z,6.76
2017-12-08T00:11:42.634Z,6.68
2017-12-08T00:13:44.223Z,6.68
2017-12-08T00:15:45.691Z,6.62
2017-12-08T00:17:47.160Z,6.59
2017-12-08T00:19:48.714Z,6.47
2017-12-08T00:21:50.242Z,6.48
2017-12-08T00:23:51.763Z,6.47
2017-12-08T00:25:53.253Z,6.41
2017-12-08T00:27:54.701Z,6.30
2017-12-08T00:29:56.130Z,6.43
2017-12-08T00:31:57.551Z,6.32
2017-12-08T00:33:59.044Z,6.33
2017-12-08T00:36:00.523Z,6.29
2017-12-08T00:38:02.089Z,6.38
2017-12-08T00:40:03.540Z,6.35
2017-12-08T00:42:05.082Z,6.29
2017-12-08T00:44:06.589Z,6.28
2017-12-08T00:46:08.088Z,6.28
2017-12-08T00:48:09.555Z,6.33
2017-12-08T00:50:11.055Z,6.43
2017-12-08T00:52:12.570Z,6.47
2017-12-08T00:54:14.111Z,6.29
2017-12-08T00:56:15.561Z,6.29
2017-12-08T00:58:17.100Z,6.35
2017-12-08T01:00:18.641Z,6.43
2017-12-08T01:02:20.121Z,6.41
2017-12-08T01:05:02.822Z,6.28
2017-12-08T01:07:04.235Z,6.22
2017-12-08T01:09:05.653Z,6.25
2017-12-08T01:11:07.063Z,6.22
2017-12-08T01:13:08.467Z,6.10
2017-12-08T01:15:09.871Z,6.09
2017-12-08T01:17:11.280Z,6.09
2017-12-08T01:19:12.725Z,6.01
2017-12-08T01:21:14.554Z,5.95
2017-12-08T01:23:15.954Z,5.92
2017-12-08T01:25:17.363Z,5.85
2017-12-08T01:27:18.766Z,5.95
2017-12-08T01:29:20.165Z,5.98
2017-12-08T01:31:21.578Z,5.98
2017-12-08T01:33:22.985Z,5.95
2017-12-08T01:35:24.390Z,6.01
2017-12-08T01:37:25.797Z,6.03
2017-12-08T01:39:27.228Z,5.95
2017-12-08T01:41:28.695Z,6.04
2017-12-08T01:43:30.142Z,6.07
2017-12-08T01:46:12.538Z,5.96
2017-12-08T01:48:13.945Z,5.95
2017-12-08T01:50:15.356Z,5.83
2017-12-08T01:52:16.923Z,5.88
2017-12-08T01:54:18.329Z,5.81
2017-12-08T01:56:19.740Z,5.88
2017-12-08T01:58:21.139Z,5.78
2017-12-08T02:01:03.540Z,5.89
2017-12-08T02:03:04.957Z,5.77
2017-12-08T02:05:06.406Z,5.83
2017-12-08T02:07:07.803Z,5.88
2017-12-08T02:09:09.206Z,5.86
2017-12-08T02:11:10.614Z,5.81
2017-12-08T02:13:12.022Z,5.81
2017-12-08T02:15:13.804Z,5.73
2017-12-08T02:17:15.267Z,5.73
2017-12-08T02:19:16.662Z,5.68
2017-12-08T02:21:18.078Z,5.53
2017-12-08T02:23:19.483Z,5.55
2017-12-08T02:25:20.984Z,5.59
2017-12-08T02:27:22.376Z,5.53
2017-12-08T02:29:23.822Z,5.55
2017-12-08T02:31:25.239Z,5.64
2017-12-08T02:33:26.645Z,5.59
2017-12-08T02:35:28.057Z,5.55
2017-12-08T02:37:29.469Z,5.56
2017-12-08T02:39:30.873Z,5.50
2017-12-08T02:41:32.329Z,5.48
2017-12-08T02:43:33.806Z,5.45
2017-12-08T02:45:35.215Z,5.45
2017-12-08T02:47:36.620Z,5.35
2017-12-08T02:49:38.036Z,5.52
2017-12-08T02:51:39.469Z,5.49
2017-12-08T02:53:40.892Z,5.48
2017-12-08T02:55:42.306Z,5.49
2017-12-08T02:57:43.712Z,5.55
2017-12-08T02:59:45.132Z,5.56
2017-12-08T03:01:46.699Z,5.48
2017-12-08T03:03:48.253Z,5.37
2017-12-08T03:05:49.786Z,5.45
2017-12-08T03:07:51.214Z,5.40
2017-12-08T03:09:52.737Z,5.35
2017-12-08T03:11:54.229Z,5.25
2017-12-08T03:13:55.905Z,5.28
2017-12-08T03:15:57.380Z,5.20
2017-12-08T03:17:58.900Z,5.20
2017-12-08T03:20:00.403Z,5.09
2017-12-08T03:22:01.940Z,5.19
2017-12-08T03:24:03.459Z,5.12
2017-12-08T03:26:04.998Z,5.14
2017-12-08T03:28:06.540Z,5.14
2017-12-08T03:30:08.017Z,5.27
2017-12-08T03:32:09.453Z,5.22
2017-12-08T03:34:51.834Z,5.25
2017-12-08T03:36:53.245Z,5.23
2017-12-08T03:38:54.649Z,5.28
2017-12-08T03:40:56.129Z,5.25
2017-12-08T03:42:57.639Z,5.23
2017-12-08T03:44:59.034Z,5.17
2017-12-08T03:47:00.443Z,5.23
2017-12-08T03:49:01.914Z,5.22
2017-12-08T03:51:03.315Z,5.23
2017-12-08T03:53:04.714Z,5.13
2017-12-08T03:55:06.137Z,5.27
2017-12-08T03:57:07.563Z,5.25
2017-12-08T03:59:08.970Z,5.27
2017-12-08T04:01:10.390Z,5.28
2017-12-08T04:03:11.810Z,5.31
2017-12-08T04:05:13.285Z,5.25
2017-12-08T04:07:55.887Z,5.25
2017-12-08T04:09:57.290Z,5.28
2017-12-08T04:11:58.702Z,5.16
2017-12-08T04:14:00.181Z,5.22
2017-12-08T04:16:01.603Z,5.23
2017-12-08T04:18:03.022Z,5.31
2017-12-08T04:20:04.493Z,5.40
2017-12-08T04:22:47.084Z,5.50
2017-12-08T04:24:48.511Z,5.49
2017-12-08T04:26:49.909Z,5.50
2017-12-08T04:28:51.335Z,5.45
2017-12-08T04:30:53.102Z,5.27
2017-12-08T04:32:54.519Z,5.27
2017-12-08T04:34:55.929Z,5.25
2017-12-08T04:36:57.345Z,5.28
2017-12-08T04:38:58.998Z,5.23
2017-12-08T04:41:00.398Z,5.19
2017-12-08T04:43:01.814Z,5.09
2017-12-08T04:45:03.218Z,5.09
2017-12-08T04:47:04.628Z,5.09
2017-12-08T04:49:06.051Z,5.02
2017-12-08T04:51:07.445Z,5.05
2017-12-08T04:53:08.849Z,4.91
2017-12-08T04:55:51.258Z,4.89
2017-12-08T04:57:52.665Z,4.94
2017-12-08T04:59:54.095Z,4.88
2017-12-08T05:01:55.610Z,4.73
2017-12-08T05:03:57.014Z,4.77
2017-12-08T05:05:58.433Z,4.80
2017-12-08T05:07:59.831Z,4.83
2017-12-08T05:10:01.234Z,4.76
2017-12-08T05:12:43.658Z,4.76
2017-12-08T05:14:45.084Z,4.76
2017-12-08T05:16:46.497Z,4.57
2017-12-08T05:18:47.912Z,4.59
2017-12-08T05:20:49.341Z,4.58
2017-12-08T05:22:50.750Z,4.58
2017-12-08T05:24:52.154Z,4.47
2017-12-08T05:26:53.562Z,4.58
2017-12-08T05:28:55.054Z,4.55
2017-12-08T05:30:56.483Z,4.54
2017-12-08T05:32:58.158Z,4.47
2017-12-08T05:34:59.613Z,4.50
2017-12-08T05:37:01.018Z,4.51
2017-12-08T05:39:02.460Z,4.37
2017-12-08T05:41:03.890Z,4.39
2017-12-08T05:43:05.332Z,4.34
2017-12-08T05:45:47.713Z,4.39
2017-12-08T05:47:49.121Z,4.37
2017-12-08T05:49:50.530Z,4.36
2017-12-08T05:51:51.939Z,4.36
2017-12-08T05:53:53.366Z,4.26
2017-12-08T05:55:54.756Z,4.21
2017-12-08T05:57:56.213Z,4.18
2017-12-08T06:00:38.613Z,4.25
2017-12-08T06:02:40.020Z,4.29
2017-12-08T06:04:41.425Z,4.22
2017-12-08T06:06:42.874Z,4.32
2017-12-08T06:08:44.233Z,4.21
2017-12-08T06:10:45.643Z,4.24
2017-12-08T06:12:47.047Z,4.19
2017-12-08T06:14:48.451Z,4.16
2017-12-08T06:16:49.864Z,4.10
2017-12-08T06:18:51.274Z,4.12
2017-12-08T06:20:52.670Z,4.04
2017-12-08T06:22:54.102Z,4.06
2017-12-08T06:24:55.519Z,4.06
2017-12-08T06:26:56.916Z,4.01
2017-12-08T06:28:58.333Z,3.98
2017-12-08T06:30:59.737Z,4.01
2017-12-08T06:33:01.140Z,3.98
2017-12-08T06:35:02.575Z,3.94
2017-12-08T06:37:03.982Z,3.97
2017-12-08T06:39:05.758Z,4.06
2017-12-08T06:41:07.161Z,4.06
2017-12-08T06:43:08.632Z,3.94
2017-12-08T06:45:10.066Z,3.88
2017-12-08T06:47:11.486Z,3.82
2017-12-08T06:49:12.907Z,3.82
2017-12-08T06:51:14.342Z,3.86
2017-12-08T06:53:15.781Z,3.76
2017-12-08T06:55:17.291Z,3.79
2017-12-08T06:57:18.656Z,3.79
2017-12-08T06:59:20.064Z,3.76
2017-12-08T07:01:21.498Z,3.76
2017-12-08T07:03:22.909Z,3.72
2017-12-08T07:05:24.416Z,3.83
2017-12-08T07:07:25.892Z,3.88
2017-12-08T07:09:27.349Z,3.88
2017-12-08T07:11:28.751Z,3.85
2017-12-08T07:13:30.161Z,3.75
2017-12-08T07:15:31.572Z,3.71
2017-12-08T07:17:33.007Z,3.72
2017-12-08T07:19:34.466Z,3.76
2017-12-08T07:21:35.960Z,3.67
2017-12-08T07:23:37.367Z,3.57
2017-12-08T07:25:38.773Z,3.61
2017-12-08T07:27:40.234Z,3.64
2017-12-08T07:29:41.709Z,3.58
2017-12-08T07:31:43.140Z,3.60
2017-12-08T07:33:44.695Z,3.71
2017-12-08T07:35:46.150Z,3.65
2017-12-08T07:37:47.671Z,3.78
2017-12-08T07:39:49.204Z,3.79
2017-12-08T07:41:50.693Z,3.65
2017-12-08T07:43:52.222Z,3.58
2017-12-08T07:45:53.761Z,3.68
2017-12-08T07:47:55.269Z,3.53
2017-12-08T07:49:56.811Z,3.61
2017-12-08T07:51:58.253Z,3.57
2017-12-08T07:53:59.898Z,3.72
2017-12-08T07:56:01.520Z,3.61
2017-12-08T07:58:03.067Z,3.61
2017-12-08T08:00:04.565Z,3.67
2017-12-08T08:02:06.046Z,3.62
2017-12-08T08:04:07.520Z,3.65
2017-12-08T08:06:08.959Z,3.65
2017-12-08T08:08:11.022Z,3.64
2017-12-08T08:10:12.486Z,3.57
2017-12-08T08:12:13.974Z,3.62
2017-12-08T08:14:15.576Z,3.47
2017-12-08T08:16:17.110Z,3.31
2017-12-08T08:18:58.016Z,3.21
2017-12-08T08:20:59.422Z,3.24
2017-12-08T08:23:00.833Z,3.23
2017-12-08T08:25:02.712Z,3.20
2017-12-08T08:27:04.161Z,3.23
2017-12-08T08:29:05.549Z,3.16
2017-12-08T08:31:07.341Z,3.09
2017-12-08T08:33:08.754Z,3.13
2017-12-08T08:35:10.162Z,3.23
2017-12-08T08:37:11.570Z,3.39
2017-12-08T08:39:12.976Z,3.27
2017-12-08T08:41:14.394Z,3.24
2017-12-08T08:43:15.957Z,3.28
2017-12-08T08:45:58.375Z,3.33
2017-12-08T08:47:59.774Z,3.24
2017-12-08T08:50:01.168Z,3.33
2017-12-08T08:52:02.826Z,3.28
2017-12-08T08:54:04.213Z,3.24
2017-12-08T08:56:05.645Z,3.28
2017-12-08T08:58:07.051Z,3.43
2017-12-08T09:00:08.461Z,3.47
2017-12-08T09:02:09.862Z,3.44
2017-12-08T09:04:11.284Z,3.42
2017-12-08T09:06:12.700Z,3.52
2017-12-08T09:08:14.100Z,3.46
2017-12-08T09:10:15.542Z,3.43
2017-12-08T09:12:16.952Z,3.47
2017-12-08T09:14:18.452Z,3.42
2017-12-08T09:16:19.961Z,3.39
2017-12-08T09:18:21.489Z,3.49
2017-12-08T09:20:22.934Z,3.36
2017-12-08T09:22:24.433Z,3.31
2017-12-08T09:24:25.913Z,3.44
2017-12-08T09:26:27.522Z,3.49
2017-12-08T09:28:29.086Z,3.54
2017-12-08T09:30:30.654Z,3.47
2017-12-08T09:32:32.181Z,3.47
2017-12-08T09:34:33.633Z,3.53
2017-12-08T09:36:35.204Z,3.42
2017-12-08T09:38:36.829Z,3.25
2017-12-08T09:40:38.391Z,3.21
2017-12-08T09:42:40.387Z,3.10
2017-12-08T09:44:41.845Z,3.20
2017-12-08T09:46:43.323Z,3.21
2017-12-08T09:48:45.287Z,3.31
2017-12-08T09:50:46.719Z,3.28
2017-12-08T09:52:48.189Z,3.30
2017-12-08T09:54:49.739Z,3.49
2017-12-08T09:57:32.222Z,3.57
2017-12-08T09:59:33.630Z,3.58
2017-12-08T10:01:35.040Z,3.50
2017-12-08T10:03:36.451Z,3.21
2017-12-08T10:05:37.857Z,3.13
2017-12-08T10:07:39.283Z,3.00
2017-12-08T10:09:40.689Z,2.84
2017-12-08T10:11:42.438Z,2.88
2017-12-08T10:13:43.849Z,2.89
2017-12-08T10:15:45.248Z,3.02
2017-12-08T10:17:46.655Z,3.06
2017-12-08T10:19:48.064Z,2.92
2017-12-08T10:21:49.562Z,2.92
2017-12-08T10:23:51.031Z,2.98
2017-12-08T10:25:52.445Z,3.06
2017-12-08T10:27:53.845Z,3.09
2017-12-08T10:30:36.233Z,3.05
2017-12-08T10:32:37.632Z,3.10
2017-12-08T10:34:39.078Z,3.09
2017-12-08T10:37:21.488Z,3.16
2017-12-08T10:39:22.970Z,3.13
2017-12-08T10:41:24.379Z,3.05
2017-12-08T10:43:25.957Z,3.09
2017-12-08T10:45:27.369Z,3.09
2017-12-08T10:47:28.773Z,3.12
2017-12-08T10:49:30.221Z,3.12
2017-12-08T10:51:31.848Z,3.23
2017-12-08T10:53:33.299Z,3.07
2017-12-08T10:55:34.738Z,3.12
2017-12-08T10:57:36.163Z,3.18
2017-12-08T10:59:37.650Z,3.30
2017-12-08T11:01:39.083Z,3.31
2017-12-08T11:03:40.483Z,3.36
2017-12-08T11:05:41.893Z,3.33
2017-12-08T11:07:43.327Z,3.40
2017-12-08T11:09:44.744Z,3.42
2017-12-08T11:11:46.182Z,3.33
2017-12-08T11:13:47.649Z,3.50
2017-12-08T11:15:49.248Z,3.47
2017-12-08T11:17:50.713Z,3.72
2017-12-08T11:19:52.253Z,3.78
2017-12-08T11:21:53.765Z,3.62
2017-12-08T11:23:55.232Z,3.75
2017-12-08T11:25:56.689Z,3.64
2017-12-08T11:27:58.094Z,3.64
2017-12-08T11:29:59.502Z,3.67
2017-12-08T11:32:00.911Z,3.71
2017-12-08T11:34:02.333Z,3.61
2017-12-08T11:36:03.739Z,3.61
2017-12-08T11:38:05.246Z,3.65
2017-12-08T11:40:06.694Z,3.64
2017-12-08T11:42:08.119Z,3.75
2017-12-08T11:44:09.526Z,3.72
2017-12-08T11:46:10.950Z,3.65
2017-12-08T11:48:12.308Z,3.61
2017-12-08T11:50:13.718Z,3.89
2017-12-08T11:52:15.126Z,3.83
2017-12-08T11:54:16.567Z,3.96
2017-12-08T11:56:17.976Z,4.00
2017-12-08T11:58:19.376Z,3.96
2017-12-08T12:00:20.800Z,3.83
2017-12-08T12:02:22.206Z,3.68
2017-12-08T12:05:03.611Z,3.58
2017-12-08T12:07:05.111Z,3.58
2017-12-08T12:09:06.504Z,3.60
2017-12-08T12:11:07.911Z,3.70
2017-12-08T12:13:09.417Z,3.68
2017-12-08T12:15:10.844Z,3.82
2017-12-08T12:17:12.239Z,3.86
2017-12-08T12:19:13.662Z,3.94
2017-12-08T12:21:15.477Z,3.98
2017-12-08T12:23:17.093Z,4.01
2017-12-08T12:25:18.539Z,4.14
2017-12-08T12:27:20.517Z,4.21
2017-12-08T12:29:22.108Z,4.00
2017-12-08T12:32:04.490Z,4.03
2017-12-08T12:34:05.904Z,4.24
2017-12-08T12:36:07.325Z,4.32
2017-12-08T12:38:08.882Z,4.22
2017-12-08T12:40:10.281Z,4.22
2017-12-08T12:42:11.696Z,4.34
2017-12-08T12:44:13.117Z,4.32
2017-12-08T12:46:14.521Z,4.32
2017-12-08T12:48:15.936Z,4.32
2017-12-08T12:50:17.360Z,4.21
2017-12-08T12:52:18.777Z,4.12
2017-12-08T12:54:20.231Z,4.14
2017-12-08T12:57:02.604Z,4.18
2017-12-08T12:59:04.057Z,4.10
2017-12-08T13:01:05.454Z,4.18
2017-12-08T13:03:06.855Z,4.22
2017-12-08T13:05:08.255Z,4.32
2017-12-08T13:07:09.695Z,4.28
2017-12-08T13:09:11.101Z,4.16
2017-12-08T13:11:12.533Z,4.12
2017-12-08T13:13:13.936Z,4.21
2017-12-08T13:15:15.347Z,4.19
2017-12-08T13:17:16.828Z,4.19
2017-12-08T13:19:18.237Z,4.21
2017-12-08T13:21:19.644Z,4.16
2017-12-08T13:23:21.062Z,4.15
2017-12-08T13:25:22.596Z,4.22
2017-12-08T13:27:24.032Z,4.21
2017-12-08T13:29:25.483Z,4.26
2017-12-08T13:31:26.977Z,4.19
2017-12-08T13:33:28.431Z,4.00
2017-12-08T13:35:30.040Z,3.98
2017-12-08T13:37:31.517Z,4.03
2017-12-08T13:39:33.019Z,3.97
2017-12-08T13:41:34.510Z,4.06
2017-12-08T13:43:36.155Z,4.08
2017-12-08T13:45:37.831Z,4.22
2017-12-08T13:47:39.445Z,4.00
2017-12-08T13:49:41.119Z,4.12
2017-12-08T13:51:42.707Z,4.07
2017-12-08T13:53:44.366Z,4.03
2017-12-08T13:55:45.871Z,4.00
2017-12-08T13:57:47.389Z,4.04
2017-12-08T13:59:48.871Z,4.19
2017-12-08T14:01:50.355Z,4.15
2017-12-08T14:03:51.886Z,4.07
2017-12-08T14:05:53.510Z,4.14
2017-12-08T14:07:55.054Z,4.14
2017-12-08T14:09:56.498Z,4.00
2017-12-08T14:11:58.053Z,4.04
2017-12-08T14:13:59.648Z,4.00
2017-12-08T14:16:01.170Z,3.83
2017-12-08T14:18:02.712Z,3.96
2017-12-08T14:20:04.145Z,3.82
2017-12-08T14:22:05.551Z,3.62
2017-12-08T14:24:06.957Z,3.61
2017-12-08T14:26:08.367Z,3.61
2017-12-08T14:28:09.787Z,3.76
2017-12-08T14:30:11.195Z,3.86
2017-12-08T14:32:12.609Z,3.96
2017-12-08T14:34:14.005Z,4.00
2017-12-08T14:36:15.464Z,4.04
2017-12-08T14:38:16.864Z,3.98
2017-12-08T14:40:18.301Z,3.86
2017-12-08T14:42:19.710Z,3.76
2017-12-08T14:44:21.119Z,3.88
2017-12-08T14:46:22.534Z,3.75
2017-12-08T14:48:24.296Z,3.60
2017-12-08T14:50:25.856Z,3.53
2017-12-08T14:52:27.326Z,3.57
2017-12-08T14:54:28.748Z,3.71
2017-12-08T14:56:30.227Z,3.61
2017-12-08T14:58:31.741Z,3.60
2017-12-08T15:00:33.207Z,3.39
2017-12-08T15:02:34.789Z,3.43
2017-12-08T15:04:36.658Z,3.33
2017-12-08T15:07:19.043Z,3.12
2017-12-08T15:09:20.447Z,3.13
2017-12-08T15:11:21.858Z,3.09
2017-12-08T15:13:23.328Z,3.03
2017-12-08T15:15:24.738Z,3.05
2017-12-08T15:17:26.143Z,2.97
2017-12-08T15:19:27.621Z,2.88
2017-12-08T15:21:29.017Z,2.87
2017-12-08T15:23:30.429Z,2.74
2017-12-08T15:25:31.835Z,2.64
2017-12-08T15:27:33.233Z,2.76
2017-12-08T15:29:34.638Z,2.63
2017-12-08T15:31:36.043Z,2.64
2017-12-08T15:33:37.448Z,2.63
2017-12-08T15:35:38.853Z,2.61
2017-12-08T15:37:40.255Z,2.61
2017-12-08T15:39:41.656Z,2.46
2017-12-08T15:41:43.070Z,2.34
2017-12-08T15:43:44.460Z,2.35
2017-12-08T15:45:45.897Z,2.37
2017-12-08T15:47:47.305Z,2.26
2017-12-08T15:49:48.710Z,2.34
2017-12-08T15:51:50.110Z,2.23
2017-12-08T15:53:51.518Z,2.26
2017-12-08T15:55:52.924Z,2.23
2017-12-08T15:57:54.388Z,2.22
2017-12-08T15:59:55.825Z,2.22
2017-12-08T16:01:57.250Z,2.22
2017-12-08T16:03:58.674Z,2.08
2017-12-08T16:06:00.050Z,2.08
2017-12-08T16:08:01.467Z,2.09
2017-12-08T16:10:02.881Z,2.10
2017-12-08T16:12:04.372Z,2.12
2017-12-08T16:14:05.816Z,2.12
2017-12-08T16:16:07.245Z,2.12
2017-12-08T16:18:08.714Z,2.06
2017-12-08T16:20:10.154Z,2.06
2017-12-08T16:22:11.583Z,1.97
2017-12-08T16:24:13.067Z,1.99
2017-12-08T16:26:14.517Z,1.99
2017-12-08T16:28:15.971Z,1.98
2017-12-08T16:30:17.564Z,2.09
2017-12-08T16:32:19.125Z,2.10
2017-12-08T16:34:20.562Z,2.01
2017-12-08T16:36:22.037Z,2.08
2017-12-08T16:38:23.537Z,2.09
2017-12-08T16:40:25.000Z,1.98
2017-12-08T16:42:26.459Z,1.99
2017-12-08T16:44:27.910Z,1.97
2017-12-08T16:46:29.464Z,1.91
2017-12-08T16:48:30.871Z,1.89
2017-12-08T16:50:32.389Z,1.87
2017-12-08T16:52:33.925Z,1.85
2017-12-08T16:54:35.349Z,1.85
2017-12-08T16:56:36.933Z,1.85
2017-12-08T16:58:38.491Z,1.87
2017-12-08T17:00:39.948Z,1.82
2017-12-08T17:02:41.642Z,1.85
2017-12-08T17:04:43.099Z,1.87
2017-12-08T17:06:44.604Z,1.82
2017-12-08T17:08:46.073Z,2.01
2017-12-08T17:10:47.561Z,1.89
2017-12-08T17:12:49.048Z,1.89
2017-12-08T17:14:50.548Z,1.85
2017-12-08T17:16:52.275Z,1.83
2017-12-08T17:18:53.799Z,1.73
2017-12-08T17:20:55.233Z,1.75
2017-12-08T17:22:56.657Z,1.79
2017-12-08T17:24:58.113Z,1.79
2017-12-08T17:26:59.536Z,1.76
2017-12-08T17:29:01.021Z,1.79
2017-12-08T17:31:02.427Z,1.82
2017-12-08T17:33:03.868Z,1.85
2017-12-08T17:35:05.346Z,1.94
2017-12-08T17:37:07.041Z,1.90
2017-12-08T17:39:08.570Z,1.93
2017-12-08T17:41:10.073Z,1.93
2017-12-08T17:43:11.734Z,1.91
2017-12-08T17:45:13.223Z,1.98
2017-12-08T17:47:14.686Z,2.10
2017-12-08T17:49:16.164Z,2.09
2017-12-08T17:51:17.651Z,2.09
2017-12-08T17:53:19.275Z,2.17
2017-12-08T17:56:02.451Z,2.34
2017-12-08T17:58:03.823Z,2.30
2017-12-08T18:00:05.221Z,2.26
2017-12-08T18:02:06.628Z,2.31
2017-12-08T18:04:08.065Z,2.38
2017-12-08T18:06:09.587Z,2.41
2017-12-08T18:08:10.990Z,2.40
2017-12-08T18:10:12.400Z,2.48
2017-12-08T18:12:55.782Z,2.46
2017-12-08T18:14:57.187Z,2.52
2017-12-08T18:16:58.594Z,2.52
2017-12-08T18:18:59.993Z,2.59
2017-12-08T18:21:01.399Z,2.59
2017-12-08T18:23:02.804Z,2.58
2017-12-08T18:25:04.229Z,2.55
2017-12-08T18:27:05.643Z,2.61
2017-12-08T18:29:07.047Z,2.61
2017-12-08T18:31:08.610Z,2.59
2017-12-08T18:33:10.079Z,2.66
2017-12-08T18:35:11.473Z,2.61
2017-12-08T18:37:12.876Z,2.66
2017-12-08T18:39:14.295Z,2.70
2017-12-08T18:41:15.704Z,2.69
2017-12-08T18:43:17.104Z,2.70
2017-12-08T18:45:18.554Z,2.67
2017-12-08T18:47:20.047Z,2.59
2017-12-08T18:49:21.505Z,2.55
2017-12-08T18:51:22.999Z,2.45
2017-12-08T18:53:24.461Z,2.22
2017-12-08T18:55:25.937Z,1.82
2017-12-08T18:57:27.344Z,1.61
2017-12-08T18:59:28.769Z,1.47
2017-12-08T19:01:30.199Z,1.39
2017-12-08T19:03:31.605Z,1.36
2017-12-08T19:05:33.008Z,1.34
2017-12-08T19:07:34.431Z,1.36
2017-12-08T19:09:35.857Z,1.22
2017-12-08T19:11:37.274Z,1.25
2017-12-08T19:13:38.698Z,1.36
2017-12-08T19:15:40.277Z,1.37
2017-12-08T19:17:41.764Z,1.29
2017-12-08T19:19:43.244Z,1.42
2017-12-08T19:21:44.794Z,1.37
2017-12-08T19:23:46.474Z,1.39
2017-12-08T19:25:48.053Z,1.40
2017-12-08T19:27:49.525Z,1.43
2017-12-08T19:29:51.019Z,1.42
2017-12-08T19:31:52.482Z,1.39
2017-12-08T19:33:54.150Z,1.47
2017-12-08T19:35:55.729Z,1.44
2017-12-08T19:37:57.466Z,1.58
2017-12-08T19:39:59.047Z,1.62
2017-12-08T19:42:00.556Z,1.61
2017-12-08T19:44:02.030Z,1.51
2017-12-08T19:46:03.496Z,1.61
2017-12-08T19:48:05.060Z,1.72
2017-12-08T19:50:06.491Z,1.58
2017-12-08T19:52:08.000Z,1.64
2017-12-08T19:54:09.475Z,1.65
2017-12-08T19:56:11.299Z,1.60
2017-12-08T19:58:12.821Z,1.60
2017-12-08T20:00:14.277Z,1.58
2017-12-08T20:02:15.767Z,1.60
2017-12-08T20:04:17.422Z,1.80
2017-12-08T20:06:18.950Z,1.75
2017-12-08T20:08:20.496Z,1.82
2017-12-08T20:10:21.996Z,1.89
2017-12-08T20:12:23.519Z,1.91
2017-12-08T20:14:25.099Z,1.99
2017-12-08T20:16:26.609Z,2.10
2017-12-08T20:18:28.112Z,2.10
2017-12-08T20:20:29.591Z,2.34
2017-12-08T20:22:31.197Z,2.33
2017-12-08T20:24:32.769Z,2.30
2017-12-08T20:26:34.177Z,2.45
2017-12-08T20:28:35.629Z,2.66
2017-12-08T20:30:37.043Z,2.76
2017-12-08T20:32:38.532Z,2.92
2017-12-08T20:34:40.210Z,2.98
2017-12-08T20:36:41.681Z,2.94
2017-12-08T20:38:43.158Z,2.91
2017-12-08T20:40:44.588Z,3.07
2017-12-08T20:42:46.160Z,3.12
2017-12-08T20:44:47.786Z,3.09
2017-12-08T20:46:49.296Z,3.10
2017-12-08T20:48:50.884Z,3.25
2017-12-08T20:51:33.279Z,3.12
2017-12-08T20:53:34.735Z,3.18
2017-12-08T20:55:36.138Z,3.28
2017-12-08T20:57:37.542Z,3.23
2017-12-08T20:59:38.948Z,3.25
2017-12-08T21:01:40.354Z,3.23
2017-12-08T21:03:41.757Z,3.09
2017-12-08T21:05:43.197Z,3.00
2017-12-08T21:07:44.604Z,2.94
2017-12-08T21:09:46.010Z,2.94
2017-12-08T21:11:47.442Z,2.95
2017-12-08T21:13:48.851Z,2.84
2017-12-08T21:15:50.260Z,2.73
2017-12-08T21:17:51.717Z,2.69
2017-12-08T21:19:53.130Z,2.71
2017-12-08T21:21:54.529Z,2.63
2017-12-08T21:23:55.955Z,2.58
2017-12-08T21:25:57.367Z,2.46
2017-12-08T21:27:58.767Z,2.58
2017-12-08T21:30:00.174Z,2.70
2017-12-08T21:32:01.581Z,2.34
2017-12-08T21:34:03.032Z,2.33
2017-12-08T21:36:04.454Z,2.37
2017-12-08T21:38:05.853Z,2.28
2017-12-08T21:40:07.289Z,2.34
2017-12-08T21:42:08.760Z,2.09
2017-12-08T21:44:10.245Z,2.15
2017-12-08T21:46:11.774Z,2.12
2017-12-08T21:48:13.268Z,2.04
2017-12-08T21:50:14.753Z,1.83
2017-12-08T21:52:16.370Z,1.82
2017-12-08T21:54:18.152Z,1.60
2017-12-08T21:56:19.709Z,1.72
2017-12-08T21:58:21.255Z,1.83
2017-12-08T22:00:22.733Z,1.80
2017-12-08T22:02:24.216Z,1.85
2017-12-08T22:04:25.688Z,1.85
2017-12-08T22:06:27.136Z,1.94
2017-12-08T22:08:28.584Z,1.97
2017-12-08T22:10:30.129Z,1.94
2017-12-08T22:12:31.624Z,2.01
2017-12-08T22:14:33.166Z,2.10
2017-12-08T22:16:34.610Z,2.09
2017-12-08T22:18:36.010Z,1.93
2017-12-08T22:20:37.420Z,1.90
2017-12-08T22:22:38.817Z,1.99
2017-12-08T22:25:21.432Z,1.98
2017-12-08T22:27:22.838Z,1.90
2017-12-08T22:29:24.593Z,1.89
2017-12-08T22:31:25.979Z,1.89
2017-12-08T22:33:27.394Z,1.94
2017-12-08T22:35:28.784Z,1.85
2017-12-08T22:37:30.201Z,1.87
2017-12-08T22:39:31.613Z,1.80
2017-12-08T22:41:33.128Z,1.79
2017-12-08T22:43:34.680Z,1.79
2017-12-08T22:45:36.088Z,1.83
2017-12-08T22:47:37.502Z,1.79
2017-12-08T22:50:20.141Z,1.93
2017-12-08T22:52:21.544Z,1.98
2017-12-08T22:54:23.485Z,1.97
2017-12-08T22:56:24.860Z,2.09
2017-12-08T22:58:26.317Z,2.13
2017-12-08T23:00:27.685Z,2.08
2017-12-08T23:02:29.106Z,2.20
2017-12-08T23:04:30.660Z,2.09
2017-12-08T23:06:32.186Z,2.13
2017-12-08T23:08:33.808Z,2.10
2017-12-08T23:10:35.356Z,2.12
2017-12-08T23:12:36.800Z,2.12
2017-12-08T23:14:38.492Z,2.08
2017-12-08T23:16:40.074Z,2.09
2017-12-08T23:18:41.561Z,2.15
2017-12-08T23:20:43.190Z,1.93
2017-12-08T23:22:44.666Z,1.94
2017-12-08T23:24:46.240Z,1.99
2017-12-08T23:26:47.805Z,1.99
2017-12-08T23:28:49.369Z,1.98
2017-12-08T23:30:50.898Z,2.01
2017-12-08T23:32:52.365Z,2.06
2017-12-08T23:34:53.989Z,1.91
2017-12-08T23:36:55.498Z,1.98
2017-12-08T23:38:57.116Z,1.90
2017-12-08T23:40:58.598Z,1.94
2017-12-08T23:43:00.219Z,1.89
2017-12-08T23:45:01.921Z,1.94
2017-12-08T23:47:03.403Z,1.90
2017-12-08T23:49:04.866Z,1.89
2017-12-08T23:51:06.347Z,1.82
2017-12-08T23:53:07.852Z,1.80
2017-12-08T23:55:09.312Z,1.82
2017-12-08T23:57:10.810Z,1.91
2017-12-08T23:59:12.352Z,1.76
